createdAt,value
2022-11-17T18:49:02.736Z,0.85
2022-11-17T18:52:07.784Z,1.23
2022-11-17T18:55:11.596Z,1.22
2022-11-17T18:58:15.295Z,1.19
2022-11-17T19:01:20.490Z,1.09
2022-11-17T19:04:25.511Z,1.31
2022-11-17T19:07:29.105Z,1.02
2022-11-17T19:10:32.824Z,0.79
2022-11-17T19:13:38.292Z,0.68
2022-11-17T19:16:44.911Z,0.90
2022-11-17T19:19:50.235Z,0.90
2022-11-17T19:22:55.118Z,1.05
2022-11-17T19:25:58.780Z,1.13
2022-11-17T19:29:05.110Z,0.91
2022-11-17T19:32:08.750Z,0.91
2022-11-17T19:35:18.326Z,0.98
2022-11-17T19:38:25.004Z,0.79
2022-11-17T19:41:30.259Z,1.02
2022-11-17T19:44:33.887Z,1.31
2022-11-17T19:47:37.584Z,1.16
2022-11-17T19:50:42.673Z,0.96
2022-11-17T19:53:46.743Z,0.78
2022-11-17T19:56:50.402Z,0.84
2022-11-17T19:59:54.056Z,0.59
2022-11-17T20:02:57.703Z,0.60
2022-11-17T20:06:03.040Z,0.69
2022-11-17T20:09:09.632Z,0.74
2022-11-17T20:12:13.287Z,0.62
2022-11-17T20:15:33.169Z,0.59
2022-11-17T20:18:37.776Z,0.68
2022-11-17T20:21:42.819Z,0.45
2022-11-17T20:24:46.504Z,0.73
2022-11-17T20:27:50.172Z,0.78
2022-11-17T20:30:53.836Z,0.79
2022-11-17T20:34:00.538Z,0.61
2022-11-17T20:37:05.588Z,0.55
2022-11-17T20:40:10.806Z,0.73
2022-11-17T20:43:14.460Z,0.71
2022-11-17T20:46:18.507Z,0.75
2022-11-17T20:49:22.359Z,0.55
2022-11-17T20:52:27.454Z,0.66
2022-11-17T20:55:31.128Z,0.85
